Time;durP1;ratioP1;P1;durP2;ratioP2;P2;SDS_P1;SDS_P2;PMS_P1;PMS_P2;Temp;Humidity;BMP_temperature;BMP_pressure;BME280_temperature;BME280_humidity;BME280_pressure;Samples;Min_cycle;Max_cycle;Signal;HPM_P1;HPM_P2
2021/11/11 00:02:14;;;;;;;5.33;4.50;;;24.10;38.80;;;;;;1796368;80;21548;-11
2021/11/11 00:04:42;;;;;;;4.78;4.28;;;24.10;38.70;;;;;;1796285;80;21091;-11
2021/11/11 00:07:11;;;;;;;5.53;4.67;;;24.10;38.70;;;;;;1796216;80;21056;-11
2021/11/11 00:09:38;;;;;;;3.87;3.47;;;24.10;38.90;;;;;;1796293;80;21182;-10
2021/11/11 00:12:08;;;;;;;4.20;3.80;;;24.10;39.00;;;;;;1796295;80;21079;-11
2021/11/11 00:14:35;;;;;;;4.83;4.28;;;24.10;39.00;;;;;;1796290;80;21088;-11
2021/11/11 00:17:03;;;;;;;5.20;4.33;;;24.10;38.80;;;;;;1796408;80;21052;-11
2021/11/11 00:19:30;;;;;;;5.47;4.15;;;24.10;38.80;;;;;;1796288;80;21503;-18
2021/11/11 00:21:58;;;;;;;4.12;3.50;;;24.10;38.70;;;;;;1796327;80;21075;-11
2021/11/11 00:24:25;;;;;;;5.05;3.80;;;24.10;39.10;;;;;;1796268;80;21490;-11
2021/11/11 00:26:53;;;;;;;5.33;4.35;;;24.10;39.10;;;;;;1796226;79;21100;-11
2021/11/11 00:29:20;;;;;;;5.62;5.12;;;24.10;38.80;;;;;;1796313;80;21517;-11
2021/11/11 00:31:48;;;;;;;4.60;4.05;;;24.10;38.70;;;;;;1796265;80;21635;-11
2021/11/11 00:34:16;;;;;;;4.20;3.80;;;24.10;38.80;;;;;;1796296;80;21096;-11
2021/11/11 00:36:43;;;;;;;4.58;3.72;;;24.10;39.20;;;;;;1796252;80;21541;-11
2021/11/11 00:39:11;;;;;;;4.75;4.20;;;24.10;39.20;;;;;;1796332;80;21619;-11
2021/11/11 00:41:39;;;;;;;4.72;4.25;;;24.10;38.90;;;;;;1796319;80;21545;-9
2021/11/11 00:44:07;;;;;;;5.00;4.50;;;24.10;38.80;;;;;;1796244;80;21100;-10
2021/11/11 00:46:34;;;;;;;4.00;3.47;;;24.10;38.90;;;;;;1796216;80;21142;-10
2021/11/11 00:49:06;;;;;;;5.87;4.70;;;24.10;39.20;;;;;;1796107;80;21154;-10
2021/11/11 00:51:31;;;;;;;5.15;4.65;;;24.10;39.00;;;;;;1795528;80;21068;-10
2021/11/11 00:53:59;;;;;;;4.50;4.10;;;24.10;39.00;;;;;;1796151;80;21566;-10
2021/11/11 00:56:27;;;;;;;7.20;5.05;;;24.10;38.90;;;;;;1785111;78;21155;-9
2021/11/11 00:58:56;;;;;;;5.35;4.53;;;24.10;38.80;;;;;;1784406;80;21596;-10
2021/11/11 01:01:24;;;;;;;5.05;4.03;;;24.10;38.80;;;;;;1784433;80;21068;-10
2021/11/11 01:03:51;;;;;;;4.08;3.67;;;24.10;39.20;;;;;;1784399;80;21146;-9
2021/11/11 01:06:18;;;;;;;5.33;4.50;;;24.10;39.30;;;;;;1784399;80;21060;-10
2021/11/11 01:08:46;;;;;;;4.72;4.15;;;24.10;39.00;;;;;;1784429;80;21360;-10
2021/11/11 01:11:13;;;;;;;5.10;4.37;;;24.10;39.10;;;;;;1760260;80;21591;-10
2021/11/11 01:13:41;;;;;;;4.08;3.67;;;24.10;39.00;;;;;;1784462;80;21165;-10
2021/11/11 01:16:08;;;;;;;4.70;3.80;;;24.00;39.90;;;;;;1784412;80;21056;-10
2021/11/11 01:18:36;;;;;;;5.22;4.72;;;24.10;39.40;;;;;;1784430;80;21056;-10
2021/11/11 01:21:03;;;;;;;5.15;4.65;;;24.10;39.10;;;;;;1784367;80;21084;-10
2021/11/11 01:23:30;;;;;;;4.97;4.47;;;24.10;39.60;;;;;;1784466;80;21076;-10
2021/11/11 01:25:58;;;;;;;5.47;4.05;;;24.10;39.10;;;;;;1784408;80;21033;-10
2021/11/11 01:28:25;;;;;;;4.53;4.05;;;24.10;39.40;;;;;;1784392;79;21123;-10
2021/11/11 01:30:53;;;;;;;4.35;3.95;;;24.10;39.30;;;;;;1784415;80;21054;-10
2021/11/11 01:33:20;;;;;;;5.95;4.33;;;24.10;39.30;;;;;;1784416;80;21602;-10
2021/11/11 01:35:49;;;;;;;4.97;4.47;;;24.10;39.20;;;;;;1784423;80;21126;-10
2021/11/11 01:38:17;;;;;;;5.37;4.85;;;24.10;39.10;;;;;;1784430;80;21588;-10
2021/11/11 01:40:45;;;;;;;4.78;4.05;;;24.10;39.20;;;;;;1784404;80;21091;-10
2021/11/11 01:43:12;;;;;;;5.97;4.37;;;24.10;39.40;;;;;;1784364;80;21158;-10
2021/11/11 01:45:41;;;;;;;7.22;5.50;;;24.10;39.40;;;;;;1784403;80;21088;-10
2021/11/11 01:48:12;;;;;;;5.35;4.85;;;24.10;39.20;;;;;;1784385;80;21045;-10
2021/11/11 01:50:40;;;;;;;5.10;4.60;;;24.10;39.10;;;;;;1782682;80;21053;-10
2021/11/11 01:53:11;;;;;;;4.78;4.08;;;24.10;39.10;;;;;;1784459;80;21561;-10
2021/11/11 01:55:39;;;;;;;4.30;3.90;;;24.10;39.60;;;;;;1784504;78;21100;-10
2021/11/11 01:58:07;;;;;;;5.03;4.03;;;24.10;39.70;;;;;;1784411;80;21088;-10
2021/11/11 02:00:38;;;;;;;5.80;5.20;;;24.10;39.60;;;;;;1784430;80;21084;-10
2021/11/11 02:03:06;;;;;;;5.63;4.60;;;24.10;39.20;;;;;;1783234;80;21104;-10
2021/11/11 02:05:34;;;;;;;5.67;4.28;;;24.10;39.20;;;;;;1784416;80;21087;-10
2021/11/11 02:08:02;;;;;;;4.97;3.87;;;24.10;39.50;;;;;;1784404;80;21608;-10
2021/11/11 02:10:30;;;;;;;5.28;4.33;;;24.10;39.50;;;;;;1784379;80;21521;-9
2021/11/11 02:12:59;;;;;;;4.97;4.45;;;24.10;39.20;;;;;;1784401;80;21067;-10
2021/11/11 02:15:26;;;;;;;6.05;5.00;;;24.10;39.10;;;;;;1784388;80;21572;-10
2021/11/11 02:17:54;;;;;;;6.00;5.03;;;24.10;39.10;;;;;;1784374;80;21521;-10
2021/11/11 02:20:24;;;;;;;5.25;4.42;;;24.10;39.00;;;;;;1784449;80;21080;-10
2021/11/11 02:22:53;;;;;;;5.30;4.08;;;24.10;39.20;;;;;;1784372;80;21063;-10
2021/11/11 02:25:23;;;;;;;5.00;4.47;;;24.10;39.40;;;;;;1784356;80;21068;-10
2021/11/11 02:27:53;;;;;;;6.15;4.80;;;24.10;39.20;;;;;;1784302;79;21107;-9
2021/11/11 02:30:22;;;;;;;5.47;4.70;;;24.10;39.20;;;;;;1784284;80;21501;-10
2021/11/11 02:32:50;;;;;;;5.10;4.17;;;24.10;39.20;;;;;;1784389;80;21076;-10
2021/11/11 02:35:18;;;;;;;4.72;4.28;;;24.10;39.60;;;;;;1784382;80;21581;-10
2021/11/11 02:37:45;;;;;;;5.30;4.35;;;24.10;39.60;;;;;;1784374;80;21087;-10
2021/11/11 02:40:15;;;;;;;5.25;4.72;;;24.10;39.40;;;;;;1784353;80;21174;-10
2021/11/11 02:42:44;;;;;;;5.12;4.62;;;24.10;39.30;;;;;;1782832;80;21068;-10
2021/11/11 02:45:15;;;;;;;4.67;3.87;;;24.10;39.80;;;;;;1784381;80;21072;-10
2021/11/11 02:47:43;;;;;;;4.92;4.05;;;24.10;39.60;;;;;;1784503;80;21142;-10
2021/11/11 02:50:11;;;;;;;4.70;4.00;;;24.10;39.70;;;;;;1784383;80;21608;-10
2021/11/11 02:52:38;;;;;;;4.65;4.15;;;24.10;39.40;;;;;;1784354;80;21624;-12
2021/11/11 02:55:07;;;;;;;6.15;5.22;;;24.10;39.30;;;;;;1784350;78;21635;-10
2021/11/11 02:57:36;;;;;;;5.08;4.58;;;24.10;39.10;;;;;;1784346;80;21564;-10
2021/11/11 03:00:10;;;;;;;5.75;4.30;;;24.10;39.30;;;;;;1784361;80;21612;-10
2021/11/11 03:02:38;;;;;;;5.35;4.42;;;24.10;39.30;;;;;;1784398;80;21501;-10
2021/11/11 03:05:07;;;;;;;6.05;5.40;;;24.10;39.40;;;;;;1784356;80;21088;-10
2021/11/11 03:07:35;;;;;;;5.65;5.00;;;24.10;39.10;;;;;;1784490;80;21619;-10
2021/11/11 03:10:04;;;;;;;6.40;5.70;;;24.10;39.10;;;;;;1784342;80;21158;-10
2021/11/11 03:12:31;;;;;;;4.80;4.10;;;24.10;39.00;;;;;;1784339;80;21482;-10
2021/11/11 03:14:59;;;;;;;4.95;4.25;;;24.10;39.40;;;;;;1784402;80;21526;-10
2021/11/11 03:17:26;;;;;;;6.35;5.20;;;24.10;39.40;;;;;;1784379;80;21064;-10
2021/11/11 03:19:54;;;;;;;5.87;5.28;;;24.10;39.20;;;;;;1784372;80;21119;-10
2021/11/11 03:22:21;;;;;;;5.60;5.00;;;24.10;39.10;;;;;;1784459;80;21143;-10
2021/11/11 03:24:50;;;;;;;5.20;4.53;;;24.10;39.70;;;;;;1784456;80;21604;-10
2021/11/11 03:27:18;;;;;;;5.58;4.50;;;24.10;39.50;;;;;;1784321;79;21093;-10
2021/11/11 03:29:47;;;;;;;5.67;4.78;;;24.10;39.50;;;;;;1784485;80;21497;-10
2021/11/11 03:32:14;;;;;;;5.10;4.58;;;24.10;39.30;;;;;;1784384;80;21131;-10
2021/11/11 03:34:42;;;;;;;5.62;5.03;;;24.10;39.20;;;;;;1784538;80;21553;-10
2021/11/11 03:37:11;;;;;;;5.70;4.67;;;24.10;39.20;;;;;;1784368;80;21084;-10
2021/11/11 03:39:38;;;;;;;5.58;4.40;;;24.10;39.10;;;;;;1784450;80;21135;-10
2021/11/11 03:42:07;;;;;;;6.47;4.67;;;24.10;39.40;;;;;;1784403;80;21533;-10
2021/11/11 03:44:34;;;;;;;5.78;5.12;;;24.10;39.30;;;;;;1784363;80;21084;-10
2021/11/11 03:47:03;;;;;;;5.80;4.87;;;24.10;39.20;;;;;;1784288;80;21096;-10
2021/11/11 03:49:32;;;;;;;4.40;4.00;;;24.10;39.30;;;;;;1784338;80;21052;-10
2021/11/11 03:52:00;;;;;;;5.20;4.00;;;24.10;39.40;;;;;;1784451;80;21524;-10
2021/11/11 03:54:28;;;;;;;5.00;3.85;;;24.10;39.60;;;;;;1784338;80;21568;-12
2021/11/11 03:56:57;;;;;;;5.20;4.70;;;24.10;39.70;;;;;;1791251;78;21541;-18
2021/11/11 03:59:26;;;;;;;5.28;4.47;;;24.10;39.40;;;;;;1795872;80;21103;-10
2021/11/11 04:01:54;;;;;;;4.50;4.10;;;24.10;39.20;;;;;;1796088;80;21533;-10
2021/11/11 04:04:22;;;;;;;3.70;3.35;;;24.20;39.30;;;;;;1796038;80;21103;-10
2021/11/11 04:06:49;;;;;;;5.25;3.98;;;24.10;39.70;;;;;;1795938;80;21051;-11
2021/11/11 04:09:17;;;;;;;5.25;4.47;;;24.10;39.70;;;;;;1796044;80;21669;-10
2021/11/11 04:11:45;;;;;;;4.50;4.10;;;24.10;39.60;;;;;;1796001;80;21505;-10
2021/11/11 04:14:12;;;;;;;5.87;4.40;;;24.10;39.30;;;;;;1795970;80;21474;-11
2021/11/11 04:16:42;;;;;;;4.65;4.17;;;24.10;39.30;;;;;;1795960;80;21134;-11
2021/11/11 04:19:09;;;;;;;4.10;3.70;;;24.10;39.30;;;;;;1795906;80;21084;-11
2021/11/11 04:21:37;;;;;;;4.58;3.87;;;24.10;39.60;;;;;;1795988;80;21576;-11
2021/11/11 04:24:05;;;;;;;4.67;4.28;;;24.10;39.50;;;;;;1796043;80;21145;-11
2021/11/11 04:26:38;;;;;;;5.25;4.55;;;24.10;39.30;;;;;;1795988;79;21540;-11
2021/11/11 04:29:08;;;;;;;5.05;4.35;;;24.10;39.30;;;;;;1795377;80;21060;-11
2021/11/11 04:31:39;;;;;;;4.33;3.90;;;24.10;39.30;;;;;;1795047;80;21083;-11
2021/11/11 04:34:05;;;;;;;;;;;24.10;39.50;;;;;;1797725;80;21531;-11
2021/11/11 04:42:18;;;;;;;5.50;4.50;;;24.10;39.70;;;;;;1796154;80;21138;-10
2021/11/11 05:03:16;;;;;;;4.90;4.40;;;23.90;39.90;;;;;;1796023;80;21149;-10
2021/11/11 05:05:41;;;;;;;5.17;4.67;;;23.90;39.60;;;;;;1795254;80;21079;-10
2021/11/11 05:08:08;;;;;;;4.83;4.42;;;23.90;39.50;;;;;;1796055;80;21162;-10
2021/11/11 05:10:36;;;;;;;5.08;3.90;;;24.00;39.50;;;;;;1796051;80;21619;-10
2021/11/11 05:13:04;;;;;;;5.03;4.33;;;24.00;39.70;;;;;;1796247;80;21565;-10
2021/11/11 05:15:32;;;;;;;4.37;3.98;;;24.00;39.60;;;;;;1796133;80;21593;-10
2021/11/11 05:18:00;;;;;;;5.33;4.80;;;24.00;39.50;;;;;;1796204;80;21557;-21
2021/11/11 05:20:28;;;;;;;5.90;5.00;;;24.00;39.30;;;;;;1796133;80;21069;-10
2021/11/11 05:22:56;;;;;;;5.58;4.95;;;24.00;39.30;;;;;;1796083;80;21528;-10
2021/11/11 05:25:23;;;;;;;4.62;3.80;;;24.00;39.30;;;;;;1796097;80;21087;-10
2021/11/11 05:27:51;;;;;;;6.87;4.20;;;23.90;39.70;;;;;;1796046;78;21678;-10
2021/11/11 05:30:19;;;;;;;5.28;4.78;;;23.90;39.70;;;;;;1796160;80;21183;-10
2021/11/11 05:32:47;;;;;;;5.37;4.87;;;24.00;39.40;;;;;;1796169;80;21544;-11
2021/11/11 05:35:15;;;;;;;5.25;4.50;;;24.00;39.40;;;;;;1796067;80;21599;-10
2021/11/11 05:37:43;;;;;;;4.42;3.75;;;24.00;39.40;;;;;;1796077;80;21134;-10
2021/11/11 05:40:14;;;;;;;5.62;4.05;;;23.90;39.80;;;;;;1796073;80;21091;-10
2021/11/11 05:42:42;;;;;;;5.65;4.80;;;24.00;39.90;;;;;;1796139;80;21099;-10
2021/11/11 05:45:10;;;;;;;5.83;5.00;;;23.90;39.60;;;;;;1796085;80;21527;-10
2021/11/11 05:47:38;;;;;;;5.55;4.67;;;23.90;39.50;;;;;;1796093;80;21129;-10
2021/11/11 05:50:06;;;;;;;5.40;4.55;;;24.00;39.50;;;;;;1796051;80;21052;-10
2021/11/11 05:52:34;;;;;;;4.62;4.15;;;24.00;39.70;;;;;;1796071;80;21536;-10
2021/11/11 05:55:01;;;;;;;4.92;4.30;;;24.00;39.80;;;;;;1796042;80;21154;-10
2021/11/11 05:57:29;;;;;;;5.40;4.80;;;24.00;39.60;;;;;;1807521;79;21551;-10
2021/11/11 05:59:57;;;;;;;4.95;4.28;;;24.00;39.50;;;;;;1821326;79;21074;-9
2021/11/11 06:02:25;;;;;;;4.97;4.47;;;24.00;39.60;;;;;;1821267;79;21093;-10
2021/11/11 06:04:53;;;;;;;4.12;3.72;;;24.00;39.50;;;;;;1821298;79;21530;-10
2021/11/11 06:07:20;;;;;;;4.25;3.80;;;24.00;39.60;;;;;;1821255;79;21097;-10
2021/11/11 06:09:47;;;;;;;5.72;5.00;;;24.00;39.80;;;;;;1821381;79;21642;-10
2021/11/11 06:12:15;;;;;;;4.97;4.30;;;24.00;39.70;;;;;;1821290;79;21119;-10
2021/11/11 06:14:42;;;;;;;5.33;4.55;;;24.00;39.60;;;;;;1821309;79;21543;-10
2021/11/11 06:17:10;;;;;;;4.53;4.12;;;24.00;39.50;;;;;;1821321;79;21527;-9
2021/11/11 06:19:40;;;;;;;4.33;3.80;;;24.00;39.90;;;;;;1821280;79;21546;-10
2021/11/11 06:22:07;;;;;;;4.97;4.42;;;24.00;40.00;;;;;;1821271;79;21171;-10
2021/11/11 06:24:35;;;;;;;5.03;4.53;;;24.00;40.30;;;;;;1821296;79;21140;-10
2021/11/11 06:27:03;;;;;;;5.25;4.72;;;24.00;39.70;;;;;;1821336;77;21595;-10
2021/11/11 06:29:30;;;;;;;5.70;4.72;;;24.00;39.70;;;;;;1821283;79;21101;-10
2021/11/11 06:31:58;;;;;;;4.72;3.65;;;24.00;39.70;;;;;;1821247;79;21203;-10
2021/11/11 06:34:25;;;;;;;3.87;3.42;;;24.00;40.00;;;;;;1821306;79;21088;-10
2021/11/11 06:36:53;;;;;;;5.55;4.53;;;24.00;39.90;;;;;;1821281;79;21074;-10
2021/11/11 06:39:20;;;;;;;4.58;4.17;;;24.00;39.80;;;;;;1821324;79;21539;-10
2021/11/11 06:41:48;;;;;;;6.33;4.50;;;24.00;39.50;;;;;;1821314;79;21128;-10
2021/11/11 06:44:24;;;;;;;4.47;3.20;;;24.00;39.50;;;;;;1821279;79;21070;-10
2021/11/11 06:46:49;;;;;;;4.78;3.80;;;24.00;39.80;;;;;;1820386;79;21081;-10
2021/11/11 06:49:16;;;;;;;6.00;3.92;;;24.00;39.70;;;;;;1821315;79;21625;-11
2021/11/11 06:51:43;;;;;;;6.22;4.05;;;24.00;39.60;;;;;;1821307;79;21608;-10
2021/11/11 06:54:11;;;;;;;4.78;4.28;;;24.00;39.70;;;;;;1821290;79;21542;-10
2021/11/11 06:56:39;;;;;;;3.90;3.47;;;24.00;39.60;;;;;;1821262;79;21596;-10
2021/11/11 06:59:06;;;;;;;3.77;3.22;;;24.00;39.70;;;;;;1787143;79;21553;-10
2021/11/11 07:01:34;;;;;;;4.30;3.90;;;24.00;39.90;;;;;;1784402;80;21542;-10
2021/11/11 07:04:01;;;;;;;4.53;4.03;;;24.00;39.80;;;;;;1784331;80;21150;-10
2021/11/11 07:06:29;;;;;;;4.50;4.10;;;24.00;39.60;;;;;;1784355;80;21056;-10
2021/11/11 07:08:56;;;;;;;4.15;3.75;;;24.00;39.50;;;;;;1784370;80;21557;-10
2021/11/11 07:11:24;;;;;;;4.10;3.70;;;24.00;39.60;;;;;;1784383;80;21154;-10
2021/11/11 07:13:51;;;;;;;4.45;4.00;;;24.00;40.00;;;;;;1784336;80;21084;-10
2021/11/11 07:16:19;;;;;;;4.53;4.12;;;24.00;40.10;;;;;;1784352;80;21060;-10
2021/11/11 07:18:46;;;;;;;4.85;4.35;;;24.00;39.80;;;;;;1784379;80;21052;-10
2021/11/11 07:21:14;;;;;;;4.90;4.40;;;24.00;39.80;;;;;;1784338;80;21163;-10
2021/11/11 07:23:41;;;;;;;3.65;3.17;;;24.00;39.70;;;;;;1784423;80;21607;-10
2021/11/11 07:26:09;;;;;;;3.87;3.45;;;24.00;40.00;;;;;;1784343;80;21557;-10
2021/11/11 07:28:36;;;;;;;5.35;3.65;;;24.00;40.00;;;;;;1784221;79;21569;-10
2021/11/11 07:31:05;;;;;;;5.17;4.40;;;24.00;39.80;;;;;;1784298;80;21166;-10
2021/11/11 07:33:32;;;;;;;4.55;4.12;;;24.00;40.20;;;;;;1784400;80;21052;-10
2021/11/11 07:36:03;;;;;;;4.40;3.50;;;24.00;39.80;;;;;;1784396;80;21029;-10
2021/11/11 07:38:29;;;;;;;4.45;4.05;;;24.00;40.00;;;;;;1784084;80;21146;-10
2021/11/11 07:40:56;;;;;;;4.22;3.83;;;24.00;40.00;;;;;;1784327;80;21088;-10
2021/11/11 07:43:24;;;;;;;4.22;3.83;;;24.00;39.90;;;;;;1784379;80;21603;-10
2021/11/11 07:45:51;;;;;;;4.95;4.45;;;24.00;39.70;;;;;;1784264;80;21092;-10
2021/11/11 07:48:21;;;;;;;4.22;3.75;;;24.00;39.60;;;;;;1784331;80;21537;-10
2021/11/11 07:50:48;;;;;;;3.90;3.50;;;24.00;39.60;;;;;;1784289;80;21127;-10
2021/11/11 07:53:17;;;;;;;3.77;3.35;;;24.00;39.90;;;;;;1784306;80;21084;-10
2021/11/11 07:55:44;;;;;;;6.12;4.37;;;24.00;40.20;;;;;;1784298;80;21522;-10
2021/11/11 07:58:12;;;;;;;4.78;4.28;;;24.00;39.80;;;;;;1784243;78;21537;-10
2021/11/11 08:00:40;;;;;;;5.15;4.65;;;24.00;39.70;;;;;;1784366;80;21502;-10
2021/11/11 08:03:08;;;;;;;4.58;3.45;;;24.00;39.60;;;;;;1784423;80;21679;-10
2021/11/11 08:05:35;;;;;;;4.78;4.08;;;24.00;40.10;;;;;;1784364;80;21146;-10
2021/11/11 08:08:03;;;;;;;4.40;3.98;;;23.90;40.00;;;;;;1784389;80;21514;-10
2021/11/11 08:10:30;;;;;;;4.58;4.17;;;24.00;39.90;;;;;;1784363;79;21120;-10
2021/11/11 08:12:58;;;;;;;4.53;3.83;;;24.00;39.60;;;;;;1784374;80;21650;-10
2021/11/11 08:15:25;;;;;;;4.28;3.87;;;24.00;39.70;;;;;;1784473;80;21088;-10
2021/11/11 08:17:53;;;;;;;4.22;3.60;;;24.00;40.00;;;;;;1784409;80;21072;-10
2021/11/11 08:20:20;;;;;;;5.33;4.00;;;24.00;40.00;;;;;;1784412;80;21603;-10
2021/11/11 08:22:51;;;;;;;5.22;4.62;;;24.00;39.70;;;;;;1784374;80;21198;-10
2021/11/11 08:25:19;;;;;;;5.12;4.25;;;24.00;39.60;;;;;;1784724;80;21088;-10
2021/11/11 08:27:49;;;;;;;4.83;4.33;;;24.00;39.70;;;;;;1784295;79;21127;-10
2021/11/11 08:30:17;;;;;;;3.60;3.30;;;24.00;39.70;;;;;;1784376;80;21068;-10
2021/11/11 08:32:46;;;;;;;4.62;3.55;;;23.90;39.90;;;;;;1784379;80;21092;-10
2021/11/11 08:35:14;;;;;;;5.25;4.75;;;24.00;40.20;;;;;;1784370;80;21154;-10
2021/11/11 08:37:42;;;;;;;5.05;4.55;;;23.90;40.00;;;;;;1784439;80;21115;-10
2021/11/11 08:40:11;;;;;;;5.30;4.42;;;24.00;39.80;;;;;;1784352;80;21091;-10
2021/11/11 08:42:39;;;;;;;4.40;3.60;;;24.00;39.80;;;;;;1784353;80;21147;-11
2021/11/11 08:45:07;;;;;;;4.28;3.62;;;23.90;40.20;;;;;;1784404;80;21502;-10
2021/11/11 08:47:35;;;;;;;4.97;4.25;;;23.90;40.20;;;;;;1784352;80;21096;-10
2021/11/11 08:50:02;;;;;;;5.20;4.42;;;23.90;40.00;;;;;;1784333;80;21107;-10
2021/11/11 08:52:31;;;;;;;4.50;4.08;;;23.90;39.90;;;;;;1784445;80;21104;-10
2021/11/11 08:54:58;;;;;;;4.30;3.52;;;24.00;40.10;;;;;;1784393;80;21201;-10
2021/11/11 08:57:26;;;;;;;4.08;3.70;;;24.00;40.30;;;;;;1784383;80;21079;-10
2021/11/11 08:59:55;;;;;;;4.85;3.77;;;23.90;40.30;;;;;;1794563;78;21541;-10
2021/11/11 09:02:24;;;;;;;4.85;4.40;;;24.00;40.20;;;;;;1796055;80;21071;-10
2021/11/11 09:04:52;;;;;;;4.40;4.00;;;24.00;40.30;;;;;;1796009;80;21182;-10
2021/11/11 09:07:20;;;;;;;4.70;4.28;;;24.00;40.50;;;;;;1796035;80;21155;-10
2021/11/11 09:09:47;;;;;;;3.50;3.20;;;24.00;40.30;;;;;;1796059;80;21540;-10
2021/11/11 09:12:15;;;;;;;3.90;3.35;;;24.00;40.60;;;;;;1796082;80;21541;-10
2021/11/11 09:14:43;;;;;;;4.62;4.15;;;24.00;40.80;;;;;;1795974;80;21061;-10
2021/11/11 09:17:11;;;;;;;4.40;4.00;;;24.00;40.60;;;;;;1796011;80;21493;-10
2021/11/11 09:19:39;;;;;;;4.78;4.37;;;24.00;40.80;;;;;;1796094;80;21631;-10
2021/11/11 09:22:06;;;;;;;3.70;3.30;;;24.00;40.80;;;;;;1796097;80;21611;-10
2021/11/11 09:24:34;;;;;;;3.92;3.17;;;24.00;41.10;;;;;;1796087;80;21541;-10
2021/11/11 09:27:05;;;;;;;4.58;4.17;;;24.00;41.10;;;;;;1796023;79;21525;-10
2021/11/11 09:29:32;;;;;;;6.20;4.13;;;24.00;41.00;;;;;;1796242;80;21130;-10
2021/11/11 09:32:00;;;;;;;5.22;4.28;;;24.00;41.20;;;;;;1795936;80;21068;-10
2021/11/11 09:34:27;;;;;;;3.87;3.47;;;24.00;41.30;;;;;;1796067;80;21513;-10
2021/11/11 09:36:55;;;;;;;3.90;3.50;;;24.00;41.50;;;;;;1795994;80;21087;-10
2021/11/11 09:39:22;;;;;;;4.62;4.12;;;24.00;41.50;;;;;;1796022;80;21060;-11
2021/11/11 09:41:51;;;;;;;4.58;4.17;;;24.00;41.40;;;;;;1796009;80;21091;-10
2021/11/11 09:44:18;;;;;;;5.35;3.75;;;24.10;41.20;;;;;;1796022;80;21123;-10
2021/11/11 09:46:47;;;;;;;4.72;4.30;;;24.10;41.20;;;;;;1796078;80;21529;-10
2021/11/11 09:49:14;;;;;;;4.00;3.60;;;24.10;41.20;;;;;;1796077;80;21561;-10
2021/11/11 09:51:42;;;;;;;3.77;3.17;;;24.10;41.50;;;;;;1796043;80;21185;-10
2021/11/11 09:59:28;;;;;;;5.08;4.55;;;24.00;41.50;;;;;;1795946;78;20448;-11
2021/11/11 10:01:56;;;;;;;3.83;3.45;;;23.90;41.90;;;;;;1796008;80;21083;-10
2021/11/11 10:04:26;;;;;;;5.67;3.90;;;24.00;42.10;;;;;;1796006;80;21154;-10
2021/11/11 10:06:53;;;;;;;7.05;4.35;;;24.00;42.00;;;;;;1796028;80;21095;-10
2021/11/11 10:09:23;;;;;;;4.78;4.35;;;24.00;41.90;;;;;;1796006;80;21509;-10
2021/11/11 10:11:59;;;;;;;4.90;4.50;;;24.00;42.00;;;;;;1796104;80;21582;-10
2021/11/11 10:14:36;;;;;;;4.45;4.05;;;24.10;41.90;;;;;;1796059;80;21036;-10
2021/11/11 10:17:07;;;;;;;4.15;3.80;;;24.10;42.10;;;;;;1796091;80;21506;-10
2021/11/11 10:19:37;;;;;;;4.42;4.00;;;24.00;42.10;;;;;;1796030;80;21474;-11
2021/11/11 10:22:10;;;;;;;6.22;5.67;;;24.00;42.20;;;;;;1793859;80;21088;-10
2021/11/11 10:24:49;;;;;;;5.17;4.67;;;24.00;41.90;;;;;;1795436;80;21123;-10
2021/11/11 10:30:09;;;;;;;4.40;3.58;;;24.00;42.10;;;;;;1795841;80;21091;-10
2021/11/11 10:32:51;;;;;;;5.35;4.30;;;24.00;42.40;;;;;;1796052;80;21145;-10
2021/11/11 10:35:22;;;;;;;5.28;4.78;;;24.00;42.30;;;;;;1796127;80;21552;-10
2021/11/11 10:38:07;;;;;;;5.42;4.92;;;24.00;42.30;;;;;;1796098;80;21137;-10
2021/11/11 10:40:40;;;;;;;5.75;5.05;;;24.10;42.20;;;;;;1795989;80;21537;-10
2021/11/11 10:43:10;;;;;;;5.25;4.35;;;24.00;42.30;;;;;;1796169;80;21091;-10
2021/11/11 10:45:43;;;;;;;5.10;4.50;;;24.00;42.50;;;;;;1796044;80;21588;-10
2021/11/11 10:48:12;;;;;;;5.08;4.58;;;24.10;42.50;;;;;;1795912;80;21537;-10
2021/11/11 10:50:42;;;;;;;6.25;5.65;;;24.10;42.30;;;;;;1796068;80;21080;-12
2021/11/11 10:53:12;;;;;;;5.85;5.25;;;24.10;42.10;;;;;;1795966;80;21075;-11
2021/11/11 10:55:45;;;;;;;5.00;4.53;;;24.10;42.30;;;;;;1795995;80;21083;-10
2021/11/11 10:58:15;;;;;;;4.47;4.05;;;24.10;42.60;;;;;;1764982;80;21572;-10
2021/11/11 11:00:46;;;;;;;5.40;4.87;;;24.10;42.60;;;;;;1795428;78;21619;-10
2021/11/11 11:03:26;;;;;;;6.22;5.10;;;24.10;42.50;;;;;;1795969;80;21064;-9
2021/11/11 11:05:58;;;;;;;5.42;4.92;;;24.20;42.30;;;;;;1795912;80;21036;-10
2021/11/11 11:08:39;;;;;;;6.33;5.60;;;24.10;42.30;;;;;;1795991;80;21095;-10
2021/11/11 11:11:10;;;;;;;4.80;3.92;;;24.10;42.20;;;;;;1796235;80;21611;-12
2021/11/11 11:13:52;;;;;;;4.60;4.20;;;24.10;42.50;;;;;;1795942;80;21083;-10
2021/11/11 11:16:25;;;;;;;6.47;5.10;;;24.10;42.40;;;;;;1795910;80;21552;-10
2021/11/11 11:18:58;;;;;;;6.03;5.45;;;24.10;42.20;;;;;;1794668;80;21072;-10
2021/11/11 11:21:31;;;;;;;5.80;5.28;;;24.10;42.00;;;;;;1796152;80;21513;-10
2021/11/11 11:24:01;;;;;;;5.37;4.85;;;24.10;42.00;;;;;;1795977;80;21490;-10
2021/11/11 11:26:35;;;;;;;5.15;4.20;;;24.10;42.00;;;;;;1795542;78;21083;-10
2021/11/11 11:29:11;;;;;;;5.30;4.80;;;24.10;42.30;;;;;;1795765;80;21067;-10
2021/11/11 11:31:52;;;;;;;5.60;5.10;;;24.10;42.10;;;;;;1795645;80;21113;-10
2021/11/11 11:34:19;;;;;;;6.47;5.33;;;24.10;41.90;;;;;;1794285;80;21091;-11
2021/11/11 11:36:55;;;;;;;5.37;4.87;;;24.10;42.00;;;;;;1795977;80;21040;-11
2021/11/11 11:39:32;;;;;;;5.10;4.60;;;24.10;41.90;;;;;;1795922;80;21067;-11
2021/11/11 11:42:07;;;;;;;5.33;4.83;;;24.10;41.80;;;;;;1795972;80;21441;-11
2021/11/11 11:44:41;;;;;;;4.10;3.67;;;24.10;41.80;;;;;;1795073;79;21104;-9
2021/11/11 11:50:04;;;;;;;5.83;5.22;;;24.10;42.10;;;;;;1795798;80;21064;-10
2021/11/11 11:52:34;;;;;;;5.62;5.03;;;24.10;41.90;;;;;;1796210;80;21167;-10
2021/11/11 11:57:49;;;;;;;5.70;4.92;;;24.10;41.90;;;;;;1795827;80;21087;-10
2021/11/11 12:00:09;;;;;;;6.40;5.70;;;24.10;41.80;;;;;;1787967;80;21084;-10
2021/11/11 12:02:42;;;;;;;5.35;4.85;;;24.10;41.70;;;;;;1782149;80;21053;-11
2021/11/11 12:05:23;;;;;;;4.92;4.42;;;24.10;41.70;;;;;;1781106;80;21161;-11
2021/11/11 12:10:40;;;;;;;6.20;5.60;;;24.10;42.10;;;;;;1784239;80;21554;-10
2021/11/11 12:13:42;;;;;;;5.60;5.10;;;24.10;42.00;;;;;;1783847;80;21594;-10
2021/11/11 12:16:15;;;;;;;6.12;5.53;;;24.10;41.90;;;;;;1782009;80;21065;-10
2021/11/11 12:34:15;;;;;;;6.45;5.85;;;24.00;42.30;;;;;;1784204;80;21256;-10
2021/11/11 12:41:14;;;;;;;6.20;5.60;;;24.00;42.50;;;;;;1758222;81;21199;-10
2021/11/11 12:43:42;;;;;;;6.70;6.00;;;24.00;42.50;;;;;;1757720;81;21158;-10
2021/11/11 12:46:29;;;;;;;7.65;5.78;;;24.10;42.40;;;;;;1758295;81;21197;-10
2021/11/11 12:49:35;;;;;;;6.60;5.80;;;24.10;42.50;;;;;;1758315;81;21689;-11
2021/11/11 12:52:19;;;;;;;7.08;5.78;;;24.10;42.60;;;;;;1758328;81;21197;-11
2021/11/11 12:54:47;;;;;;;7.50;6.70;;;24.00;42.70;;;;;;1758331;81;21080;-11
2021/11/11 12:57:14;;;;;;;7.30;6.60;;;24.10;42.50;;;;;;1758442;81;21588;-11
2021/11/11 12:59:42;;;;;;;6.10;5.50;;;24.10;42.50;;;;;;1758241;81;21181;-11
2021/11/11 13:02:12;;;;;;;6.97;5.60;;;24.20;42.90;;;;;;1758414;81;21603;-11
2021/11/11 13:04:48;;;;;;;7.47;6.67;;;24.20;42.70;;;;;;1758348;81;21186;-11
2021/11/11 13:07:29;;;;;;;8.15;7.35;;;24.20;42.60;;;;;;1758326;81;21076;-11
2021/11/11 13:10:05;;;;;;;7.10;6.40;;;24.20;42.50;;;;;;1758520;81;21171;-11
2021/11/11 13:12:31;;;;;;;7.40;6.70;;;24.20;42.60;;;;;;1783841;80;21620;-10
2021/11/11 13:15:06;;;;;;;7.20;6.20;;;24.30;42.60;;;;;;1784516;80;21651;-10
2021/11/11 14:00:28;;;;;;;16.23;10.82;;;24.50;42.60;;;;;;1891590;76;21225;-41
2021/11/11 15:57:05;;;;;;;11.97;8.05;;;24.30;43.50;;;;;;1853069;77;21158;-33
2021/11/11 16:03:33;;;;;;;11.60;9.33;;;24.30;43.40;;;;;;1852619;77;21145;-33
2021/11/11 16:22:12;;;;;;;11.80;8.80;;;24.30;43.50;;;;;;1793543;79;21101;-42
2021/11/11 16:27:05;;;;;;;11.88;8.33;;;24.30;43.50;;;;;;1852610;76;21072;-44
2021/11/11 16:29:32;;;;;;;10.90;8.35;;;24.30;43.50;;;;;;1852787;77;21522;-38
2021/11/11 16:32:00;;;;;;;14.05;9.38;;;24.30;43.40;;;;;;1852684;77;21532;-42
2021/11/11 16:34:28;;;;;;;15.75;8.88;;;24.40;43.30;;;;;;1852774;77;21539;-34
2021/11/11 16:36:55;;;;;;;10.18;7.95;;;24.40;43.30;;;;;;1852709;77;21086;-35
2021/11/11 16:39:23;;;;;;;11.63;7.83;;;24.40;43.20;;;;;;1848328;77;21559;-35
2021/11/11 16:41:51;;;;;;;9.38;7.80;;;24.40;43.20;;;;;;1847395;78;21116;-35
2021/11/11 16:44:19;;;;;;;13.08;8.40;;;24.40;43.10;;;;;;1847438;78;21587;-34
2021/11/11 16:46:47;;;;;;;13.53;8.35;;;24.50;43.00;;;;;;1847349;78;21121;-34
2021/11/11 16:49:15;;;;;;;14.93;8.75;;;24.50;43.00;;;;;;1847355;78;21079;-35
2021/11/11 16:51:44;;;;;;;14.10;8.40;;;24.50;43.00;;;;;;1847356;78;21575;-34
2021/11/11 16:54:12;;;;;;;15.90;9.40;;;24.50;43.10;;;;;;1847383;78;21155;-34
2021/11/11 16:56:39;;;;;;;15.70;9.18;;;24.40;43.30;;;;;;1847543;78;21590;-35
2021/11/11 16:59:07;;;;;;;15.18;8.20;;;24.50;42.90;;;;;;1847357;77;21490;-34